Pagrindinis puslapis
METAR-TAF:

METAR-TAF

Oro uostai :

Maljorkos Palma, Ispanija

platuma: 39-33N, ilguma: 002-44E, Aukštis: 4 m

Dabartinis oras

Ataskaita buvo paskelbta 38 minutes, ne 08:00 UTC
Vėjas 1 kt nuo kintamojo kryptimis
Temperatūra 11°C
Drėgmė 100%
Slėgis 1023 hPa
Matomumas 10 km arba daugiau
Mažai debesys ne aukštis 2000 ft

METAR: LEPA 060800Z VRB01KT 9999 FEW020 11/11 Q1023 NOSIG

Laikas: 09:38 (08:38 UTC)

Prognozė

Ataskaita buvo paskelbta 3 valandos ir 38 minutes, ne 05:00 UTC
Prognozė galioja nuo 06 metu 06 UTC su 07 metu 06 UTC
Vėjas 5 kt nuo kintamojo kryptimis
Matomumas 10 km arba daugiau
Mažai debesys ne aukštis 1500 ft
Išsisklaidę debesys ne aukštis 3000 ft
Tikimybė 30% :
Laikinai
nuo 06 metu 06 UTC su 06 metu 08 UTC
Matomumas: 3000 m
Rūkas lopais

TAF: LEPA 060500Z 0606/0706 VRB05KT 9999 FEW015 SCT030 TX18/0613Z TN07/0607Z PROB30 TEMPO 0606/0608 3000 BCFG

Orai ataskaitas ir orų prognozės (METAR, TAF).

turimą stotys yra geltonos ir raudonos taškus žemėlapyje.

Perkelti pele per norėdami pamatyti stoties vardą.

Tada spustelėkite, norėdami matyti oro stebėjimo ir prognozės.

Norėdami pakeisti žemėlapį: spustelėkite ant žalios mygtukų su juodo kryžiaus žemyn,; žalią mygtuką su brūkšneliu, jei norite nutolinti; arba žalių rodyklių gretimoms žemėlapius.


METAR-TAF: